El código SYNOP

Mammatus

  • Visitante
Re:El código SYNOP
« Respuesta #12 en: Miércoles 03 Marzo 2004 23:06:44 pm »
Este es el enlace del que hablaba Mammatus: https://www.tiempo.com/ram/numero5/synops.asp



¡¡¡¡El recopón bendito!!!!

 :o :o :o :o :o :o

Me acabo de enterar de que "eso" fue publicado en la RAM..... :-\

isotacas

  • Visitante
Re:El código SYNOP
« Respuesta #13 en: Miércoles 03 Marzo 2004 23:10:36 pm »
Este es el enlace del que hablaba Mammatus: https://www.tiempo.com/ram/numero5/synops.asp



¡¡¡¡El recopón bendito!!!!

 :o :o :o :o :o :o

Me acabo de enterar de que "eso" fue publicado en la RAM..... :-\

Jejeje, es que parece que tú eres un tío importante, Mammatus  ;D

Desconectado Javier F

  • Cb Calvus
  • ****
  • 1789
  • Robles en el bosque de Ucieda.
Re:El código SYNOP
« Respuesta #14 en: Miércoles 03 Marzo 2004 23:24:06 pm »
Muy interesante todo lo que habeis comentado.
Madrid, Herrera Oria.

Desconectado Cumulonimbus

  • Fideo andalú
  • Supercélula Tornádica
  • *******
  • 21071
  • Sexo: Masculino
  • No hay ná como´r zú pa tené un wen cutih
    • El maravilloso mundo de las tormentas
Re:El código SYNOP
« Respuesta #15 en: Jueves 04 Marzo 2004 00:50:09 am »
"a la saca"  ;D ;D
Móstoles (Madrid) a 666 metros sobre el nivel del mar.

Dani: David, suenan muchas sirenas.

Fobos: Si, pues no se de qué.

Dani: Tiene que haber habido un accidente grave.

Fobos: ¿Un accidente? Si pues no se como va a haber un accidente estando todo el mundo parado. Habrá explotado un ventilador porque otra cosa...

Desconectado CumulusHumilis

  • Cb Incus
  • *****
  • 3038
  • Sexo: Masculino
  • Mediosiglenial en busca de aventuras
    • digitalmeteo
Re:El código SYNOP
« Respuesta #16 en: Jueves 04 Marzo 2004 09:59:15 am »
Jeje Fran...la RAM tiene estas sorpresas... ::) de vez en cuando no viene mal hacerse una pasadita por el CD recolpilatorio o por la web, claro...se encuentran tesoros ahí, al alcance de la mano. Creo que mucha gente no es consciente de la cantidad de información de calidad que puede encontrar ahí. Os animo a que en vez de programas basura, un par de noches por semana os leais en detenimiento un numerito de la RAM...  :)

Por cierto, id aprendiendo bien el tema de los SYNOPS, dentro de poco van a ser los protagonistas de un nuevo evento que seguro dará que hablar... ;) ... y hasta aquí puedo leer... :P

Salud, CH.
CEO digitalmeteo

Desconectado CumulusHumilis

  • Cb Incus
  • *****
  • 3038
  • Sexo: Masculino
  • Mediosiglenial en busca de aventuras
    • digitalmeteo
Re:El código SYNOP
« Respuesta #17 en: Jueves 04 Marzo 2004 10:34:32 am »
Más leña...con la explicación de los grupos 000, 111, 222 y 333.

http://weather.unisys.com/wxp/Appendices/Formats/SYNOP.html

Por cierto, ¿una aplicación para decodificar el formato? La que ha puesto Frentefrio es para codificar, si no me equivoco...

Salud, CH.
CEO digitalmeteo

Desconectado CumulusHumilis

  • Cb Incus
  • *****
  • 3038
  • Sexo: Masculino
  • Mediosiglenial en busca de aventuras
    • digitalmeteo
Re:El código SYNOP
« Respuesta #18 en: Jueves 04 Marzo 2004 10:49:32 am »
Me respondo a pi pispo... :P

http://www.geocities.com/meteoware/english.htm

Salud, CH.
« Última modificación: Jueves 04 Marzo 2004 10:49:54 am por CumulusHumilis »
CEO digitalmeteo

FRENTEFRIO

  • Visitante
Re:El código SYNOP
« Respuesta #19 en: Jueves 04 Marzo 2004 13:50:05 pm »
Buenos dias a todos.
En efecto, Cumulus Humilis...el enlace que he puesto en el tópic es un programa para codificar las observaciones al SYNOP.
Yo también he estado viendo el enlace que tú has puesto; he descargado el archivo comprimido y lo he instalado....pero no tengo ni la menor idea de cómo funciona  ???.
Sabes tú cómo va el programa?   Si es así te agradecería una ayuda, para mí y para todos los interesados.
Pues eso....gracias anticipadas.
Saludos y hasta pronto

Desconectado CumulusHumilis

  • Cb Incus
  • *****
  • 3038
  • Sexo: Masculino
  • Mediosiglenial en busca de aventuras
    • digitalmeteo
Re:El código SYNOP
« Respuesta #20 en: Jueves 04 Marzo 2004 17:10:10 pm »
Hola, te explico.

Abres el programa SYNOP.exe
Te pide un nombre de archivo, que tienes que haber copiado en la misma carpeta. Yo he bajado el último ahora mismo (del servidor que pone en la página donde has bajado el programa), se llama EURO0412, corresponde al día 4 a las 12Z. Pues eso, le pones como nombre EURO041.txt y pulsas ENTER
En un momentín lo procesa y genera un fichero que se llama synopoutput.txt, que va machacando a los anteriores que tuvieras, y dentro están los resultados para todas las estaciones.
Lo abres y buscas tu estación, por ejemplo...esto me sale para Valencia:

===================================================
08284 12970 02808 10050 21023 30195 40273 56001 60002
  333 20024 50224 55104 70000=
Day of the month: 4   Observation time: 6 hr
Weather station: 08284   LEVC   VALENCIA (CIV/MIL)   SP
Latitude: 3930N      Longitude: 00028W      Elevation: 62 m

Cloud base: 2500 m or higher or no clouds.
Horizontal visibility: 20 km.
Total cloud cover: sky clear.
Wind direction: 280°.
Wind speed: 8 knots, from anemometer.
Air temperature: 5.0 °C.
Dewpoint temperature: -2.3 °C.
Sea level pressure: 1027.3 hPa.
Pressure change over last 3 hours: -0.1 hPa, decreasing, then steady.
Present weather: not significant.
Past weather: not significant.
Minimum temperature: 2.4 °C.


Como ves es bastante sencillo, espero que te sirva.

Salud, CH.
CEO digitalmeteo

FRENTEFRIO

  • Visitante
Re:El código SYNOP
« Respuesta #21 en: Jueves 04 Marzo 2004 19:45:59 pm »
Saludos.
Muchas gracias por tu explicación, CH...pero si yo codifico mis propios datos ¿este programa también te los puede descodificar?
Y si puede hacerlo...¿cómo se hace?



Desconectado CumulusHumilis

  • Cb Incus
  • *****
  • 3038
  • Sexo: Masculino
  • Mediosiglenial en busca de aventuras
    • digitalmeteo
Re:El código SYNOP
« Respuesta #22 en: Viernes 05 Marzo 2004 09:42:31 am »
Pues ahí me pillas un poco, porque como yo no los codifico. No obstante, supongo que deberías hacerlo con la estructura que tienen los ficheros que acepta la aplicación. Como ejemplo, te pongo el inicio de uno de ellos:

SMMJ01 LWOH 050600
AAXX 05061
13579 32970 03606 11040 21087 39334 40207 51004 333 21042 31///=

SMMJ41 LWSK 050600
AAXX 05061
13586 32798 13403 11006 21089 39915 40217 53004 81500 333 21025
81850=

SMML01 LMMM 050600
AAXX 05064
16597 32670 52909 10094 20042 30107 40196 51011 81101 333 20089 30007
 70000 81835 85075 91121 91534 =

SMML01 LMMM 050600
AAXX 05064
16597 32670 52909 10094 20042 30107 40196 51011 81101 333 20089 30007
 70000 81835 85075 91121 91534 =

SMOS01 LOWM 050600
AAXX 05061
11010 12675 79901 11041 21071 39877 40276 52003 69902 875// 333
21070 47007 86640=
11012 36/// /0602 11059 21071 39786 40282 333 21060 3/108=
11028 NIL=
11035 11666 73203 11033 21071 30002 40268 52003 69902 72272 875// 333
21033 43011 87640=
11036 32665 73404 11029 21066 30025 40268 53004 875// 333 21029
41001 83643 86650=
11101 32958 22101 11023 21065 39697 40226 57004 82030 333 21023
41998 82365=
11120 32970 10000 11061 21067 39516 40260 54000 80001 333 21066
43008 81080=
11146 32989 03513 11164 21286 36861 47960 57008
 333 21171 49300 91127 444 16172=
11150 31900 09901 11078 21083 39695 40270 52005 74444 333 21095
43005=
11155 36/// /3202 11108 21113 38346 48480 333 21114=
11157 32458 89901 11066 21082 39460 40272 53005 875// 333 21084 3/109
42005 81615 84622 87628 93197=
11190 36/// /3102 11026 21073 30022 40267 333 21026 3/106=
11212 32/89 13406 11116 21153 37793 48488 56003 81500 333
21116 44066 816// 92601 444 16//9 76195=
11231 31150 73102 11077 21093 39656 40262 52005 71011 875// 333
21087 43010 81703 83625 86630=
11240 11575 81302 11021 21052 39800 40257 53002 69902 70272 888//
333 21022 47012 83825 88634 93198=




Pues tus datos deberían seguir esa estructura, y así serían legibles e interpretables por el programa.

Salud, CH.
« Última modificación: Viernes 05 Marzo 2004 09:43:20 am por CumulusHumilis »
CEO digitalmeteo

Desconectado Tin

  • Cumulus Húmilis
  • **
  • 485
  • Sexo: Masculino
  • Terrassa -Barcelona
Re:El código SYNOP
« Respuesta #23 en: Viernes 05 Marzo 2004 17:14:11 pm »
Una pregunta,

¿se codifica el tipo de precipitación? (lluvia, nieve, granizo, tormenta, rocío, chubasco......)

Si no es así, ¿alguien sabe como puedo apuntar en una hoja, el tipo de precipitación, con siglas? ¿Hay alguna convención que hable de esto y diga que lluvia tiene que apuntarse como RA, nieve como SN o algo así?

Saludos
ARREGLA TU TEJADO ANTES DE QUE VENGA LA TORMENTA                                                                                              Terrassa - Barcelona